Time;durP1;ratioP1;P1;durP2;ratioP2;P2;SDS_P1;SDS_P2;PMS_P1;PMS_P2;Temp;Humidity;BMP_temperature;BMP_pressure;BME280_temperature;BME280_humidity;BME280_pressure;Samples;Min_cycle;Max_cycle;Signal;HPM_P1;HPM_P2
2022/01/02 00:00:05;;;;;;;16.07;5.90;;;13.00;99.90;;;;;;6209083;23;20265;-83
2022/01/02 00:02:34;;;;;;;11.73;5.80;;;13.00;99.90;;;;;;6208187;23;20201;-78
2022/01/02 00:05:04;;;;;;;12.83;4.83;;;13.00;99.90;;;;;;6209213;23;20198;-84
2022/01/02 00:07:31;;;;;;;10.43;4.73;;;12.90;99.90;;;;;;6208315;23;20170;-82
2022/01/02 00:10:04;;;;;;;10.90;4.73;;;12.90;99.90;;;;;;6206972;23;20181;-81
2022/01/02 00:12:33;;;;;;;11.37;4.83;;;12.90;99.90;;;;;;6205945;23;20163;-81
2022/01/02 00:15:04;;;;;;;9.63;5.07;;;12.90;99.90;;;;;;6207451;23;20582;-82
2022/01/02 00:17:32;;;;;;;10.13;4.93;;;12.90;99.90;;;;;;6207092;23;20495;-80
2022/01/02 00:20:09;;;;;;;8.70;4.47;;;12.90;99.90;;;;;;6206814;23;20185;-83
2022/01/02 00:22:39;;;;;;;11.27;4.83;;;12.80;99.90;;;;;;6206970;23;20280;-82
2022/01/02 00:25:13;;;;;;;13.33;5.13;;;12.80;99.90;;;;;;6207775;23;20194;-79
2022/01/02 00:27:42;;;;;;;10.40;5.10;;;12.80;99.90;;;;;;6208527;23;20459;-80
2022/01/02 00:30:09;;;;;;;16.47;5.50;;;12.80;99.90;;;;;;6208444;23;20177;-77
2022/01/02 00:32:37;;;;;;;10.33;4.80;;;12.80;99.90;;;;;;6208608;23;20178;-79
2022/01/02 00:35:05;;;;;;;23.07;6.03;;;12.80;99.90;;;;;;6208700;23;20174;-79
2022/01/02 00:37:32;;;;;;;10.07;5.33;;;12.80;99.90;;;;;;6207978;23;20579;-80
2022/01/02 00:39:58;;;;;;;11.17;4.80;;;12.80;99.90;;;;;;6208426;23;20178;-79
2022/01/02 00:42:30;;;;;;;12.80;5.23;;;12.80;99.90;;;;;;6208536;23;20169;-82
2022/01/02 00:45:01;;;;;;;14.13;5.63;;;12.80;99.90;;;;;;6208622;23;20159;-81
2022/01/02 00:47:33;;;;;;;15.13;5.40;;;12.80;99.90;;;;;;6207842;23;20198;-82
2022/01/02 00:50:07;;;;;;;8.70;4.93;;;12.80;99.90;;;;;;6209475;23;20174;-81
2022/01/02 00:52:36;;;;;;;11.43;5.33;;;12.80;99.90;;;;;;6208380;23;20174;-83
2022/01/02 00:55:05;;;;;;;13.60;4.87;;;12.70;99.90;;;;;;6209696;23;20169;-82
2022/01/02 00:57:37;;;;;;;10.23;4.57;;;12.70;99.90;;;;;;6208791;23;20174;-81
2022/01/02 01:00:12;;;;;;;12.27;5.60;;;12.70;99.90;;;;;;6208171;23;20185;-82
2022/01/02 01:02:46;;;;;;;12.97;6.27;;;12.70;99.90;;;;;;6208394;23;20201;-82
2022/01/02 01:05:20;;;;;;;10.00;5.17;;;12.70;99.90;;;;;;6209115;23;20429;-86
2022/01/02 01:07:49;;;;;;;14.53;5.33;;;12.70;99.90;;;;;;6208418;23;20174;-82
2022/01/02 01:10:16;;;;;;;13.30;5.70;;;12.60;99.90;;;;;;6208745;23;20255;-81
2022/01/02 01:12:46;;;;;;;11.97;5.70;;;12.60;99.90;;;;;;6208578;23;20177;-83
2022/01/02 01:15:13;;;;;;;10.37;5.00;;;12.60;99.90;;;;;;6209187;23;20170;-80
2022/01/02 01:17:41;;;;;;;17.00;5.77;;;12.60;99.90;;;;;;6207324;23;20177;-79
2022/01/02 01:20:12;;;;;;;16.27;5.90;;;12.60;99.90;;;;;;6207760;23;20177;-79
2022/01/02 01:22:39;;;;;;;12.17;5.83;;;12.60;99.90;;;;;;6207152;23;20193;-79
2022/01/02 01:25:07;;;;;;;13.03;5.40;;;12.60;99.90;;;;;;6207894;23;20177;-79
2022/01/02 01:27:34;;;;;;;17.20;5.80;;;12.60;99.90;;;;;;6207948;23;20184;-81
2022/01/02 01:30:04;;;;;;;15.83;6.13;;;12.60;99.90;;;;;;6207201;23;20807;-78
2022/01/02 01:32:31;;;;;;;12.30;5.57;;;12.60;99.90;;;;;;6207612;23;20494;-82
2022/01/02 01:34:57;;;;;;;13.03;5.77;;;12.60;99.90;;;;;;6208692;23;20173;-79
2022/01/02 01:37:24;;;;;;;16.10;5.33;;;12.60;99.90;;;;;;6207880;23;20579;-83
2022/01/02 01:39:51;;;;;;;11.17;4.57;;;12.70;99.90;;;;;;6208778;23;20177;-82
2022/01/02 01:42:28;;;;;;;10.70;4.93;;;12.70;99.90;;;;;;6208725;23;20435;-84
2022/01/02 01:45:28;;;;;;;14.27;5.17;;;12.70;99.90;;;;;;6208895;23;20170;-84
2022/01/02 01:47:54;;;;;;;11.17;4.67;;;12.70;99.90;;;;;;6208302;23;20198;-82
2022/01/02 01:50:22;;;;;;;12.90;5.30;;;12.60;99.90;;;;;;6207433;23;20190;-83
2022/01/02 01:52:49;;;;;;;17.27;6.17;;;12.60;99.90;;;;;;6207937;23;20166;-86
2022/01/02 01:55:17;;;;;;;14.93;5.13;;;12.70;99.90;;;;;;6207829;23;20174;-82
2022/01/02 01:57:44;;;;;;;12.83;4.73;;;12.70;99.90;;;;;;6207316;23;20189;-82
2022/01/02 02:00:13;;;;;;;12.93;5.87;;;12.70;99.90;;;;;;6208453;23;20181;-82
2022/01/02 02:02:41;;;;;;;14.17;5.10;;;12.70;99.90;;;;;;6207583;23;20559;-82
2022/01/02 02:05:10;;;;;;;13.33;4.47;;;12.70;99.90;;;;;;6207363;23;20166;-80
2022/01/02 02:07:41;;;;;;;12.73;4.73;;;12.70;99.90;;;;;;6208442;23;20178;-85
2022/01/02 02:10:14;;;;;;;13.10;5.03;;;12.80;99.90;;;;;;6207181;23;20178;-83
2022/01/02 02:12:42;;;;;;;13.47;4.93;;;12.80;99.90;;;;;;6207554;23;20499;-80
2022/01/02 02:15:10;;;;;;;14.73;4.43;;;12.70;99.90;;;;;;6208449;23;20420;-82
2022/01/02 02:17:38;;;;;;;13.60;5.10;;;12.70;99.90;;;;;;6207655;23;20166;-82
2022/01/02 02:20:17;;;;;;;13.13;4.60;;;12.80;99.90;;;;;;6207573;23;20200;-80
2022/01/02 02:22:47;;;;;;;12.87;4.40;;;12.80;99.90;;;;;;6208143;23;20177;-82
2022/01/02 02:25:15;;;;;;;10.97;5.27;;;12.80;99.90;;;;;;6210169;23;20261;-85
2022/01/02 02:27:49;;;;;;;15.77;4.17;;;12.80;99.90;;;;;;6210525;23;20182;-85
2022/01/02 02:30:16;;;;;;;16.30;5.37;;;12.80;99.90;;;;;;6208636;23;20162;-82
2022/01/02 02:32:44;;;;;;;11.23;4.73;;;12.80;99.90;;;;;;6209609;23;20220;-83
2022/01/02 02:35:10;;;;;;;12.40;4.27;;;12.90;99.90;;;;;;6210486;23;20173;-82
2022/01/02 02:37:42;;;;;;;12.43;4.53;;;12.90;99.90;;;;;;6208746;23;20170;-82
2022/01/02 02:40:10;;;;;;;16.77;4.93;;;12.90;99.90;;;;;;6206977;23;20595;-82
2022/01/02 02:42:45;;;;;;;13.27;4.40;;;12.90;99.90;;;;;;6208437;23;20176;-80
2022/01/02 02:50:46;;;;;;;12.77;4.30;;;12.90;99.90;;;;;;6208755;23;20417;-86
2022/01/02 02:53:15;;;;;;;14.80;4.53;;;12.90;99.90;;;;;;6208090;23;20209;-81
2022/01/02 02:55:45;;;;;;;10.60;3.77;;;13.00;99.90;;;;;;6209530;23;20544;-80
2022/01/02 02:58:38;;;;;;;10.47;4.00;;;13.00;99.90;;;;;;6209071;23;20281;-81
2022/01/02 03:01:05;;;;;;;13.27;4.57;;;13.00;99.90;;;;;;6207020;23;20202;-83
2022/01/02 03:03:32;;;;;;;12.60;3.33;;;13.00;99.90;;;;;;6209070;23;20213;-81
2022/01/02 03:05:59;;;;;;;9.57;3.47;;;13.10;99.90;;;;;;6209309;23;20259;-80
2022/01/02 03:08:28;;;;;;;9.80;4.27;;;13.10;99.90;;;;;;6207917;23;20190;-79
2022/01/02 03:10:55;;;;;;;17.10;4.00;;;13.10;99.90;;;;;;6207567;23;20177;-81
2022/01/02 03:13:22;;;;;;;14.83;3.77;;;13.20;99.90;;;;;;6208948;23;20265;-81
2022/01/02 03:15:49;;;;;;;11.93;4.00;;;13.20;99.90;;;;;;6208945;23;20177;-82
2022/01/02 03:18:16;;;;;;;13.07;4.57;;;13.30;99.90;;;;;;6208239;23;20180;-81
2022/01/02 03:20:42;;;;;;;10.33;3.40;;;13.30;99.90;;;;;;6208958;23;20178;-80
2022/01/02 03:23:09;;;;;;;16.03;5.23;;;13.30;99.90;;;;;;6208725;23;20166;-83
2022/01/02 03:25:38;;;;;;;12.47;3.60;;;13.40;99.90;;;;;;6207862;23;20178;-81
2022/01/02 03:28:05;;;;;;;10.63;3.97;;;13.40;99.90;;;;;;6207332;23;20175;-83
2022/01/02 03:30:31;;;;;;;15.40;4.03;;;13.30;99.90;;;;;;6207891;23;20227;-80
2022/01/02 03:32:58;;;;;;;10.43;3.60;;;13.40;99.90;;;;;;6208211;23;20178;-80
2022/01/02 03:35:25;;;;;;;14.63;4.23;;;13.40;99.90;;;;;;6205907;23;20182;-81
2022/01/02 03:37:52;;;;;;;14.57;3.90;;;13.40;99.90;;;;;;6208399;23;20189;-83
2022/01/02 03:40:19;;;;;;;12.20;3.90;;;13.40;99.90;;;;;;6207802;23;20244;-83
2022/01/02 03:42:47;;;;;;;18.17;4.47;;;13.40;99.90;;;;;;6207454;23;20178;-81
2022/01/02 03:45:14;;;;;;;14.17;3.90;;;13.30;99.90;;;;;;6208949;23;20209;-83
2022/01/02 03:47:42;;;;;;;11.60;4.23;;;13.30;99.90;;;;;;6208004;23;20198;-81
2022/01/02 03:50:12;;;;;;;20.03;5.20;;;13.30;99.90;;;;;;6206921;23;20181;-81
2022/01/02 03:52:39;;;;;;;12.00;3.40;;;13.20;99.90;;;;;;6207125;23;20187;-81
2022/01/02 03:55:08;;;;;;;13.00;4.40;;;13.20;99.90;;;;;;6208016;23;20181;-83
2022/01/02 03:57:35;;;;;;;17.30;5.20;;;13.20;99.90;;;;;;6207610;23;20182;-81
2022/01/02 04:00:05;;;;;;;12.23;3.60;;;13.20;99.90;;;;;;6210970;23;20627;-82
2022/01/02 04:02:32;;;;;;;18.40;4.23;;;13.20;99.90;;;;;;6210889;23;20208;-82
2022/01/02 04:04:59;;;;;;;11.00;3.87;;;13.20;99.90;;;;;;6210199;23;20176;-85
2022/01/02 04:07:25;;;;;;;17.20;4.53;;;13.20;99.90;;;;;;6209286;23;20244;-84
2022/01/02 04:09:52;;;;;;;8.83;3.43;;;13.20;99.90;;;;;;6208806;23;20488;-81
2022/01/02 04:12:19;;;;;;;15.17;3.53;;;13.20;99.90;;;;;;6209215;23;20598;-83
2022/01/02 04:14:46;;;;;;;15.00;3.90;;;13.20;99.90;;;;;;6211049;23;20769;-86
2022/01/02 04:17:14;;;;;;;11.30;3.40;;;13.20;99.90;;;;;;6210801;23;20174;-86
2022/01/02 04:19:41;;;;;;;8.63;3.10;;;13.10;99.90;;;;;;6210935;23;20181;-80
2022/01/02 04:22:08;;;;;;;11.60;3.73;;;13.20;99.90;;;;;;6209893;23;20182;-81
2022/01/02 04:24:34;;;;;;;12.17;4.27;;;13.10;99.90;;;;;;6208457;23;20174;-83
2022/01/02 04:27:01;;;;;;;12.07;4.40;;;13.10;99.90;;;;;;6210094;23;20202;-83
2022/01/02 04:29:28;;;;;;;12.00;3.43;;;13.10;99.90;;;;;;6208556;23;20166;-83
2022/01/02 04:31:55;;;;;;;10.03;3.80;;;13.10;99.90;;;;;;6208969;23;20546;-84
2022/01/02 04:34:23;;;;;;;13.13;4.13;;;13.10;99.90;;;;;;6210488;23;20170;-84
2022/01/02 04:36:50;;;;;;;9.10;3.10;;;13.10;99.90;;;;;;6210679;23;20173;-84
2022/01/02 04:39:17;;;;;;;9.07;3.33;;;13.10;99.90;;;;;;6210367;23;20185;-82
2022/01/02 04:41:44;;;;;;;13.93;3.43;;;13.10;99.90;;;;;;6210354;23;20173;-81
2022/01/02 04:44:11;;;;;;;11.87;3.30;;;13.10;99.90;;;;;;6211186;23;20193;-81
2022/01/02 04:46:37;;;;;;;9.33;3.13;;;13.10;99.90;;;;;;6210577;23;20698;-81
2022/01/02 04:49:04;;;;;;;10.40;3.20;;;13.10;99.90;;;;;;6209381;23;20170;-83
2022/01/02 04:51:32;;;;;;;7.90;2.57;;;13.10;99.90;;;;;;6209772;23;20177;-83
2022/01/02 04:54:00;;;;;;;13.20;3.57;;;13.10;99.90;;;;;;6210320;23;20208;-81
2022/01/02 04:56:27;;;;;;;8.67;3.30;;;13.10;99.90;;;;;;6209459;23;20236;-79
2022/01/02 04:58:53;;;;;;;7.83;3.03;;;13.10;99.90;;;;;;6209224;23;20199;-82
2022/01/02 05:01:20;;;;;;;10.13;3.33;;;13.20;99.90;;;;;;6207719;23;20177;-81
2022/01/02 05:03:47;;;;;;;11.23;2.93;;;13.10;99.90;;;;;;6209508;23;20174;-82
2022/01/02 05:06:14;;;;;;;8.30;2.90;;;13.10;99.90;;;;;;6209335;23;20520;-82
2022/01/02 05:08:43;;;;;;;11.10;2.93;;;13.20;99.90;;;;;;6209012;23;20185;-83
2022/01/02 05:11:10;;;;;;;7.53;2.90;;;13.20;99.90;;;;;;6209878;23;20205;-83
2022/01/02 05:13:37;;;;;;;9.83;2.97;;;13.20;99.90;;;;;;6209468;23;20175;-83
2022/01/02 05:16:04;;;;;;;11.60;3.07;;;13.30;99.90;;;;;;6209613;23;20166;-81
2022/01/02 05:18:31;;;;;;;10.07;3.80;;;13.30;99.90;;;;;;6209221;23;20173;-80
2022/01/02 05:20:58;;;;;;;9.93;2.90;;;13.30;99.90;;;;;;6209229;23;20184;-83
2022/01/02 05:23:24;;;;;;;8.60;2.87;;;13.30;99.90;;;;;;6207162;23;20181;-83
2022/01/02 05:25:53;;;;;;;9.13;2.90;;;13.30;99.90;;;;;;6206693;23;20654;-83
2022/01/02 05:28:20;;;;;;;6.90;2.93;;;13.30;99.90;;;;;;6207009;23;20221;-81
2022/01/02 05:30:47;;;;;;;12.53;3.93;;;13.30;99.90;;;;;;6207369;23;20189;-80
2022/01/02 05:33:14;;;;;;;11.47;3.43;;;13.30;99.90;;;;;;6206504;23;20174;-82
2022/01/02 05:35:41;;;;;;;10.30;3.10;;;13.20;99.90;;;;;;6206553;23;20178;-80
2022/01/02 05:38:07;;;;;;;7.43;2.97;;;13.20;99.90;;;;;;6207019;23;20170;-82
2022/01/02 05:40:34;;;;;;;11.37;3.27;;;13.30;99.90;;;;;;6206277;23;20205;-82
2022/01/02 05:43:05;;;;;;;10.17;3.23;;;13.30;99.90;;;;;;6207071;23;20281;-80
2022/01/02 05:45:33;;;;;;;9.47;3.07;;;13.30;99.90;;;;;;6207763;23;20178;-81
2022/01/02 05:48:02;;;;;;;7.47;2.60;;;13.20;99.90;;;;;;6207049;23;20202;-83
2022/01/02 05:50:29;;;;;;;10.03;3.03;;;13.30;99.90;;;;;;6207230;23;20181;-82
2022/01/02 05:52:55;;;;;;;13.23;3.10;;;13.20;99.90;;;;;;6208244;23;20193;-81
2022/01/02 05:55:23;;;;;;;12.67;4.80;;;13.20;99.90;;;;;;6207860;23;20182;-80
2022/01/02 05:57:49;;;;;;;8.30;2.93;;;13.20;99.90;;;;;;6207563;23;20181;-80
2022/01/02 06:00:17;;;;;;;7.67;2.83;;;13.20;99.90;;;;;;6207088;23;20185;-81
2022/01/02 06:02:44;;;;;;;9.07;3.00;;;13.20;99.90;;;;;;6205561;23;20201;-80
2022/01/02 06:05:11;;;;;;;8.10;2.90;;;13.10;99.90;;;;;;6206458;23;20593;-80
2022/01/02 06:07:38;;;;;;;12.63;3.10;;;13.00;99.90;;;;;;6180685;23;20217;-81
2022/01/02 06:10:06;;;;;;;6.20;3.10;;;13.00;99.90;;;;;;6206548;23;20166;-80
2022/01/02 06:12:34;;;;;;;6.27;2.63;;;13.00;99.90;;;;;;6207358;23;20166;-79
2022/01/02 06:15:00;;;;;;;9.87;2.83;;;13.00;99.90;;;;;;6207208;23;20692;-81
2022/01/02 06:17:28;;;;;;;7.77;3.90;;;13.00;99.90;;;;;;6207201;23;20283;-79
2022/01/02 06:19:55;;;;;;;5.23;2.83;;;13.00;99.90;;;;;;6207991;23;20551;-82
2022/01/02 06:22:22;;;;;;;6.17;2.60;;;12.90;99.90;;;;;;6207509;23;20174;-80
2022/01/02 06:24:49;;;;;;;8.73;2.83;;;12.90;99.90;;;;;;6207025;23;20170;-82
2022/01/02 06:27:16;;;;;;;7.07;2.83;;;12.90;99.90;;;;;;6207419;23;20201;-81
2022/01/02 06:29:42;;;;;;;6.33;3.20;;;12.90;99.90;;;;;;6207446;23;20166;-83
2022/01/02 06:32:09;;;;;;;5.03;2.73;;;12.90;99.90;;;;;;6208041;23;20173;-82
2022/01/02 06:34:37;;;;;;;9.13;3.00;;;12.90;99.90;;;;;;6207195;23;20181;-81
2022/01/02 06:37:04;;;;;;;7.43;3.13;;;12.90;99.90;;;;;;6207058;23;20181;-79
2022/01/02 06:39:31;;;;;;;7.03;2.93;;;12.90;99.90;;;;;;6206430;23;20170;-80
2022/01/02 06:41:58;;;;;;;6.77;2.87;;;12.80;99.90;;;;;;6206645;23;20190;-79
2022/01/02 06:44:25;;;;;;;6.10;2.77;;;12.80;99.90;;;;;;6206632;23;20216;-79
2022/01/02 06:46:52;;;;;;;4.80;2.67;;;12.80;99.90;;;;;;6203161;23;20194;-82
2022/01/02 06:49:18;;;;;;;8.37;2.83;;;12.80;99.90;;;;;;6177502;23;20663;-81
2022/01/02 06:51:47;;;;;;;7.53;2.80;;;12.80;99.90;;;;;;6176546;23;20628;-81
2022/01/02 06:54:13;;;;;;;7.00;3.60;;;12.80;99.90;;;;;;6177807;23;20174;-80
2022/01/02 06:56:40;;;;;;;8.00;3.30;;;12.80;99.90;;;;;;6177384;23;20179;-79
2022/01/02 06:59:07;;;;;;;5.23;3.03;;;12.80;99.90;;;;;;6177110;23;20190;-80
2022/01/02 07:01:34;;;;;;;7.03;2.87;;;12.80;99.90;;;;;;6177692;23;20190;-81
2022/01/02 07:04:01;;;;;;;7.27;3.70;;;12.80;99.90;;;;;;6178382;23;20167;-81
2022/01/02 07:06:27;;;;;;;7.63;3.50;;;12.80;99.90;;;;;;6177664;23;20199;-81
2022/01/02 07:08:56;;;;;;;8.57;3.43;;;12.80;99.90;;;;;;6178175;23;20205;-81
2022/01/02 07:11:22;;;;;;;6.97;3.10;;;12.80;99.90;;;;;;6176618;23;20167;-80
2022/01/02 07:13:49;;;;;;;8.00;3.83;;;12.80;99.90;;;;;;6177202;23;20185;-82
2022/01/02 07:16:16;;;;;;;6.50;4.30;;;12.80;99.90;;;;;;6178043;23;20178;-83
2022/01/02 07:18:42;;;;;;;7.87;3.97;;;12.80;99.90;;;;;;6177364;23;20171;-83
2022/01/02 07:21:09;;;;;;;11.57;3.90;;;12.80;99.90;;;;;;6177143;23;20171;-80
2022/01/02 07:23:36;;;;;;;6.87;3.80;;;12.80;99.90;;;;;;6176646;23;20171;-80
2022/01/02 07:26:04;;;;;;;11.63;4.30;;;12.80;99.90;;;;;;6177213;23;20171;-83
2022/01/02 07:28:33;;;;;;;11.53;3.97;;;12.80;99.90;;;;;;6176803;23;20202;-82
2022/01/02 07:31:00;;;;;;;6.73;3.83;;;12.80;99.90;;;;;;6220061;22;20239;-81
2022/01/02 07:33:27;;;;;;;9.77;4.27;;;12.80;99.90;;;;;;6238123;23;20177;-82
2022/01/02 07:35:54;;;;;;;8.63;4.03;;;12.80;99.90;;;;;;6238070;23;20170;-82
2022/01/02 07:38:21;;;;;;;7.10;3.70;;;12.80;99.90;;;;;;6237716;23;20269;-82
2022/01/02 07:40:49;;;;;;;8.60;3.73;;;12.80;99.90;;;;;;6238793;23;20663;-80
2022/01/02 07:43:17;;;;;;;10.73;4.03;;;12.80;99.90;;;;;;6237388;23;20310;-82
2022/01/02 07:45:44;;;;;;;10.40;4.70;;;12.80;99.90;;;;;;6238554;23;20874;-82
2022/01/02 07:48:11;;;;;;;11.03;4.30;;;12.70;99.90;;;;;;6216220;23;20213;-83
2022/01/02 07:50:38;;;;;;;8.43;4.27;;;12.70;99.90;;;;;;6208304;23;20627;-81
2022/01/02 07:53:04;;;;;;;10.57;4.30;;;12.60;99.90;;;;;;6208667;23;20173;-80
2022/01/02 07:55:31;;;;;;;8.40;4.07;;;12.60;99.90;;;;;;6208389;23;20567;-80
2022/01/02 07:57:58;;;;;;;11.93;4.57;;;12.50;99.90;;;;;;6208245;23;20170;-81
2022/01/02 08:00:26;;;;;;;11.53;5.00;;;12.50;99.90;;;;;;6207489;23;20177;-82
2022/01/02 08:02:53;;;;;;;13.87;4.50;;;12.40;99.90;;;;;;6207319;23;20638;-84
2022/01/02 08:05:19;;;;;;;20.57;4.80;;;12.40;99.90;;;;;;6208379;23;20174;-82
2022/01/02 08:07:46;;;;;;;13.53;4.93;;;12.30;99.90;;;;;;6205530;23;20227;-80
2022/01/02 08:10:13;;;;;;;10.47;5.17;;;12.30;99.90;;;;;;6205913;23;20174;-81
2022/01/02 08:12:40;;;;;;;14.50;5.33;;;12.30;99.90;;;;;;6207918;23;20194;-82
2022/01/02 08:15:07;;;;;;;10.70;4.40;;;12.30;99.90;;;;;;6207915;23;20181;-81
2022/01/02 08:17:35;;;;;;;15.00;5.20;;;12.30;99.90;;;;;;6205990;23;20181;-80
2022/01/02 08:20:02;;;;;;;12.10;4.90;;;12.30;99.90;;;;;;6206998;23;20166;-81
2022/01/02 08:22:29;;;;;;;9.40;4.30;;;12.30;99.90;;;;;;6206973;23;20238;-83
2022/01/02 08:24:56;;;;;;;10.87;4.83;;;12.30;99.90;;;;;;6206732;23;20173;-81
2022/01/02 08:27:23;;;;;;;12.57;5.03;;;12.30;99.90;;;;;;6207260;23;20177;-81
2022/01/02 08:29:49;;;;;;;16.20;5.90;;;12.30;99.90;;;;;;6207752;23;20209;-80
2022/01/02 08:32:16;;;;;;;13.13;5.73;;;12.30;99.90;;;;;;6207687;23;20182;-80
2022/01/02 08:34:45;;;;;;;15.87;5.80;;;12.30;99.90;;;;;;6167178;23;20572;-81
2022/01/02 08:37:14;;;;;;;12.87;4.53;;;12.20;99.90;;;;;;6207120;23;20233;-78
2022/01/02 08:39:41;;;;;;;12.30;5.17;;;12.30;99.90;;;;;;6206295;23;20471;-81
2022/01/02 08:42:08;;;;;;;14.53;5.07;;;12.20;99.90;;;;;;6207591;23;20182;-81
2022/01/02 08:44:35;;;;;;;21.80;5.63;;;12.20;99.90;;;;;;6206498;23;20179;-84
2022/01/02 08:47:02;;;;;;;17.67;5.60;;;12.20;99.90;;;;;;6210034;23;20194;-81
2022/01/02 08:49:29;;;;;;;17.70;5.57;;;12.20;99.90;;;;;;6208784;23;20685;-79
2022/01/02 08:51:57;;;;;;;22.03;6.97;;;12.20;99.90;;;;;;6209208;23;20593;-83
2022/01/02 08:54:25;;;;;;;20.47;6.77;;;12.20;99.90;;;;;;6172981;23;20897;-78
2022/01/02 08:56:52;;;;;;;16.30;6.67;;;12.20;99.90;;;;;;6209773;23;20201;-83
2022/01/02 08:59:24;;;;;;;22.47;6.90;;;12.30;99.90;;;;;;6208719;23;20177;-81
2022/01/02 09:01:51;;;;;;;24.57;6.07;;;12.20;99.90;;;;;;6208386;23;20212;-80
2022/01/02 09:04:18;;;;;;;19.47;6.00;;;12.20;99.90;;;;;;6209146;23;20535;-82
2022/01/02 09:06:45;;;;;;;22.47;6.10;;;12.20;99.90;;;;;;6208031;23;20170;-80
2022/01/02 09:09:13;;;;;;;20.97;6.37;;;12.10;99.90;;;;;;6208492;23;20193;-80
2022/01/02 09:11:40;;;;;;;18.67;6.37;;;12.10;99.90;;;;;;6208702;23;20437;-81
2022/01/02 09:14:07;;;;;;;15.77;6.30;;;12.10;99.90;;;;;;6208159;23;20176;-81
2022/01/02 09:16:35;;;;;;;19.40;6.73;;;12.10;99.90;;;;;;6208637;23;20182;-81
2022/01/02 09:19:02;;;;;;;26.03;8.67;;;12.00;99.90;;;;;;6208937;23;20176;-80
2022/01/02 09:21:29;;;;;;;21.73;6.53;;;11.90;99.90;;;;;;6208552;23;20174;-81
2022/01/02 09:23:55;;;;;;;18.50;6.83;;;11.90;99.90;;;;;;6209366;23;20185;-82
2022/01/02 09:26:24;;;;;;;16.17;6.90;;;11.90;99.90;;;;;;6209050;23;20178;-81
2022/01/02 09:28:50;;;;;;;19.77;7.10;;;11.90;99.90;;;;;;6209126;23;20198;-81
2022/01/02 09:31:17;;;;;;;19.23;6.87;;;11.90;99.90;;;;;;6208361;23;20482;-81
2022/01/02 09:33:44;;;;;;;19.20;7.00;;;11.90;99.90;;;;;;6208177;23;20177;-82
2022/01/02 09:36:11;;;;;;;20.23;6.80;;;11.90;99.90;;;;;;6208551;23;20174;-81
2022/01/02 09:38:38;;;;;;;18.53;7.50;;;11.90;99.90;;;;;;6211522;22;20174;-81
2022/01/02 09:41:06;;;;;;;25.13;8.03;;;12.00;99.90;;;;;;6239944;23;20158;-81
2022/01/02 09:43:34;;;;;;;20.73;6.93;;;12.00;99.90;;;;;;6239514;23;20577;-82
2022/01/02 09:46:03;;;;;;;21.53;7.67;;;12.00;99.90;;;;;;6240027;23;20177;-82
2022/01/02 09:48:31;;;;;;;25.80;6.97;;;12.00;99.90;;;;;;6212945;23;20216;-81
2022/01/02 09:50:57;;;;;;;19.20;7.00;;;11.90;99.90;;;;;;6210398;23;20201;-83
2022/01/02 09:53:24;;;;;;;19.97;6.57;;;11.90;99.90;;;;;;6208561;23;20429;-85
2022/01/02 09:55:51;;;;;;;16.90;7.70;;;12.00;99.90;;;;;;6208808;23;20226;-81
2022/01/02 09:58:18;;;;;;;19.80;7.03;;;12.10;99.90;;;;;;6209489;23;20178;-81
2022/01/02 10:00:48;;;;;;;18.40;6.77;;;12.10;99.90;;;;;;6206717;23;20213;-80
2022/01/02 10:03:16;;;;;;;28.00;7.40;;;12.10;99.90;;;;;;6208174;23;20252;-82
2022/01/02 10:05:54;;;;;;;28.63;8.97;;;12.10;99.90;;;;;;6207914;23;20701;-80
2022/01/02 10:08:23;;;;;;;28.30;7.83;;;12.00;99.90;;;;;;6207364;23;20193;-81
2022/01/02 10:10:59;;;;;;;21.53;7.13;;;12.00;99.90;;;;;;6207008;23;20576;-81
2022/01/02 10:13:41;;;;;;;22.40;8.13;;;12.00;99.90;;;;;;6205440;23;20192;-82
2022/01/02 10:16:22;;;;;;;26.57;8.80;;;12.00;99.90;;;;;;6206396;23;20222;-81
2022/01/02 10:18:49;;;;;;;30.30;7.60;;;11.90;99.90;;;;;;6206903;23;20173;-80
2022/01/02 10:21:30;;;;;;;25.57;7.27;;;11.90;99.90;;;;;;6210526;23;20175;-81
2022/01/02 10:24:11;;;;;;;25.30;8.50;;;11.90;99.90;;;;;;6208752;23;20174;-83
2022/01/02 10:26:38;;;;;;;27.23;7.87;;;11.80;99.90;;;;;;6206983;23;20185;-80
2022/01/02 10:29:11;;;;;;;22.30;6.73;;;11.80;99.90;;;;;;6207346;23;20456;-83
2022/01/02 10:31:39;;;;;;;27.90;9.03;;;11.80;99.90;;;;;;6207140;23;20216;-80
2022/01/02 10:34:08;;;;;;;21.10;7.07;;;11.80;99.90;;;;;;6207499;23;20979;-79
2022/01/02 10:36:36;;;;;;;27.33;8.70;;;11.80;99.90;;;;;;6208008;23;20237;-81
2022/01/02 10:39:09;;;;;;;33.60;8.33;;;11.80;99.90;;;;;;6206496;23;20202;-81
2022/01/02 10:41:38;;;;;;;27.30;8.30;;;11.80;99.90;;;;;;6208100;23;20177;-83
2022/01/02 10:44:18;;;;;;;35.03;9.23;;;11.90;99.90;;;;;;6207789;23;20208;-81
2022/01/02 10:47:21;;;;;;;37.73;9.80;;;11.90;99.90;;;;;;6207602;23;20170;-82
2022/01/02 10:49:50;;;;;;;28.07;8.20;;;11.90;99.90;;;;;;6207827;23;20776;-81
2022/01/02 10:52:21;;;;;;;26.53;8.27;;;11.90;99.90;;;;;;6206823;23;20226;-80
2022/01/02 10:54:49;;;;;;;35.73;8.57;;;11.90;99.90;;;;;;6205726;23;20610;-80
2022/01/02 10:57:15;;;;;;;28.97;7.77;;;12.00;99.90;;;;;;6206135;23;20829;-80
2022/01/02 10:59:46;;;;;;;41.83;8.97;;;12.00;99.90;;;;;;6205569;23;20226;-81
2022/01/02 11:02:15;;;;;;;29.93;8.80;;;12.00;99.90;;;;;;6207663;23;20431;-81
2022/01/02 11:04:48;;;;;;;29.20;8.70;;;12.10;99.90;;;;;;6206127;23;20174;-81
2022/01/02 11:07:23;;;;;;;32.07;9.10;;;12.20;99.90;;;;;;6206737;23;20170;-80
2022/01/02 11:09:53;;;;;;;30.63;8.23;;;12.10;99.90;;;;;;6207190;23;20189;-82
2022/01/02 11:12:20;;;;;;;32.13;8.77;;;12.10;99.90;;;;;;6206184;23;20170;-80
2022/01/02 11:14:48;;;;;;;33.20;9.33;;;12.20;99.90;;;;;;6206872;23;20178;-80
2022/01/02 11:17:17;;;;;;;37.33;8.63;;;12.20;99.90;;;;;;6207396;23;20201;-77
2022/01/02 11:19:44;;;;;;;40.73;10.20;;;12.20;99.90;;;;;;6207861;23;20170;-83
2022/01/02 11:22:14;;;;;;;37.47;7.83;;;12.20;99.90;;;;;;6206457;23;20189;-82
2022/01/02 11:24:51;;;;;;;37.43;9.07;;;12.20;99.90;;;;;;6207874;23;20177;-80
2022/01/02 11:27:24;;;;;;;40.13;9.00;;;12.30;99.90;;;;;;6207614;23;20464;-81
2022/01/02 11:29:52;;;;;;;39.07;8.97;;;12.30;99.90;;;;;;6206899;23;20340;-80
2022/01/02 11:32:25;;;;;;;36.10;8.43;;;12.30;99.90;;;;;;6206713;23;20170;-82
2022/01/02 11:34:52;;;;;;;36.23;9.13;;;12.20;99.90;;;;;;6206060;23;20173;-77
2022/01/02 11:37:24;;;;;;;32.83;9.13;;;12.20;99.90;;;;;;6205133;23;20611;-79
2022/01/02 11:39:56;;;;;;;30.77;8.20;;;12.20;99.90;;;;;;6206564;23;20633;-78
2022/01/02 11:42:45;;;;;;;32.77;8.90;;;12.10;99.90;;;;;;6206233;23;20181;-78
2022/01/02 11:45:40;;;;;;;45.67;10.90;;;12.00;99.90;;;;;;6207291;23;20170;-78
2022/01/02 11:48:27;;;;;;;39.77;9.63;;;12.00;99.90;;;;;;6205384;23;20198;-84
2022/01/02 11:50:54;;;;;;;38.40;9.53;;;12.00;99.90;;;;;;6208106;23;20162;-81
2022/01/02 11:53:23;;;;;;;40.87;10.23;;;11.90;99.90;;;;;;6207991;23;20177;-78
2022/01/02 11:55:51;;;;;;;48.20;10.27;;;11.90;99.90;;;;;;6205741;23;20208;-80
2022/01/02 11:58:49;;;;;;;44.80;11.03;;;11.90;99.90;;;;;;6206897;23;20453;-78
2022/01/02 12:01:48;;;;;;;47.33;10.73;;;11.90;99.90;;;;;;6206068;23;20714;-78
2022/01/02 12:04:17;;;;;;;40.40;10.80;;;11.90;99.90;;;;;;6207942;23;20269;-77
2022/01/02 12:06:45;;;;;;;42.47;9.83;;;11.90;99.90;;;;;;6208482;23;20173;-80
2022/01/02 12:09:35;;;;;;;52.00;11.63;;;11.80;99.90;;;;;;6208098;23;20202;-82
2022/01/02 12:12:03;;;;;;;41.80;9.73;;;11.80;99.90;;;;;;6207212;23;20166;-82
2022/01/02 12:14:30;;;;;;;37.63;10.40;;;11.80;99.90;;;;;;6207777;23;20571;-82
2022/01/02 12:17:09;;;;;;;35.50;8.17;;;11.80;99.90;;;;;;6208171;23;20166;-84
2022/01/02 12:20:04;;;;;;;33.60;8.13;;;11.90;99.90;;;;;;6208326;23;20217;-85
2022/01/02 12:22:51;;;;;;;37.63;8.80;;;12.00;99.90;;;;;;6209058;23;20244;-83
2022/01/02 12:25:20;;;;;;;29.83;8.33;;;12.00;99.90;;;;;;6209241;23;20193;-80
2022/01/02 12:27:52;;;;;;;44.57;9.13;;;12.10;99.90;;;;;;6209570;23;20170;-82
2022/01/02 12:30:19;;;;;;;29.33;8.23;;;12.10;99.90;;;;;;6210165;23;20193;-79
2022/01/02 12:32:47;;;;;;;50.43;11.13;;;12.10;99.90;;;;;;6209119;23;20475;-85
2022/01/02 12:35:16;;;;;;;30.13;8.40;;;12.10;99.90;;;;;;6210359;23;20178;-79
2022/01/02 12:37:43;;;;;;;33.80;8.60;;;12.10;99.90;;;;;;6209417;23;20188;-80
2022/01/02 12:40:15;;;;;;;33.00;9.27;;;12.10;99.90;;;;;;6209239;23;20208;-81
2022/01/02 12:42:42;;;;;;;37.47;10.03;;;12.10;99.90;;;;;;6209999;23;20236;-86
2022/01/02 12:45:10;;;;;;;36.50;10.20;;;12.10;99.90;;;;;;6209220;23;20166;-82
2022/01/02 12:47:37;;;;;;;32.40;8.67;;;12.10;99.90;;;;;;6210596;23;20186;-82
2022/01/02 12:50:06;;;;;;;33.90;7.93;;;12.10;99.90;;;;;;6210782;23;20253;-81
2022/01/02 12:52:34;;;;;;;34.33;9.77;;;12.10;99.90;;;;;;6209040;23;20232;-81